Terminal Aerodrome Forecast
Issued by NWS

Home | Current Version | Previous Version | Text Only | Print | Product List | Glossary Off
Versions: 1 2 3 4 5 6 7 8 9 10 11 12 13 14 15 16 17 18 19 20 21 22 23 24 25 26 27 28 29 30

000
FTUS45 KGGW 251500 AAA
TAFGDV
TAF AMD
KGDV 251522Z 2515/2612 32015KT P6SM BKN015
      TEMPO 2515/2517 -SHRA OVC015
     FM251700 30012KT P6SM BKN060
     FM252100 32009KT P6SM BKN060
     FM260000 VRB05KT P6SM SCT060
     FM260900 00000KT 1SM BR SCT001
      AMD LTD TO CLD VIS AND WIND=

USA.gov is the U.S. government's official web portal to all federal, state and local government web resources and services.